sensor_id;sensor_type;location;lat;lon;timestamp;temperature;humidity
30053;DHT22;17074;52.478;13.534;2022-07-11T00:00:00;16.80;99.90
30053;DHT22;17074;52.478;13.534;2022-07-11T00:02:25;16.80;99.90
30053;DHT22;17074;52.478;13.534;2022-07-11T00:04:51;16.80;99.90
30053;DHT22;17074;52.478;13.534;2022-07-11T00:07:17;16.80;99.90
30053;DHT22;17074;52.478;13.534;2022-07-11T00:09:43;16.80;99.90
30053;DHT22;17074;52.478;13.534;2022-07-11T00:12:10;16.70;99.90
30053;DHT22;17074;52.478;13.534;2022-07-11T00:14:37;16.80;99.90
30053;DHT22;17074;52.478;13.534;2022-07-11T00:17:05;16.80;99.90
30053;DHT22;17074;52.478;13.534;2022-07-11T00:19:31;16.80;99.90
30053;DHT22;17074;52.478;13.534;2022-07-11T00:21:57;16.80;99.90
30053;DHT22;17074;52.478;13.534;2022-07-11T00:24:22;16.70;99.90
30053;DHT22;17074;52.478;13.534;2022-07-11T00:26:50;16.70;99.90
30053;DHT22;17074;52.478;13.534;2022-07-11T00:29:16;16.60;99.90
30053;DHT22;17074;52.478;13.534;2022-07-11T00:31:42;16.50;99.90
30053;DHT22;17074;52.478;13.534;2022-07-11T00:34:08;16.50;99.90
30053;DHT22;17074;52.478;13.534;2022-07-11T00:36:34;16.40;99.90
30053;DHT22;17074;52.478;13.534;2022-07-11T00:38:59;16.40;99.90
30053;DHT22;17074;52.478;13.534;2022-07-11T00:41:25;16.30;99.90
30053;DHT22;17074;52.478;13.534;2022-07-11T00:43:53;16.30;99.90
30053;DHT22;17074;52.478;13.534;2022-07-11T00:46:19;16.20;99.90
30053;DHT22;17074;52.478;13.534;2022-07-11T00:48:45;16.10;99.90
30053;DHT22;17074;52.478;13.534;2022-07-11T00:51:11;16.10;99.90
30053;DHT22;17074;52.478;13.534;2022-07-11T00:53:39;16.10;99.90
30053;DHT22;17074;52.478;13.534;2022-07-11T00:56:05;16.00;99.90
30053;DHT22;17074;52.478;13.534;2022-07-11T00:58:31;16.00;99.90
30053;DHT22;17074;52.478;13.534;2022-07-11T01:00:57;15.90;99.90
30053;DHT22;17074;52.478;13.534;2022-07-11T01:03:23;15.90;99.90
30053;DHT22;17074;52.478;13.534;2022-07-11T01:05:49;15.90;99.90
30053;DHT22;17074;52.478;13.534;2022-07-11T01:08:15;15.80;99.90
30053;DHT22;17074;52.478;13.534;2022-07-11T01:10:40;15.80;99.90
30053;DHT22;17074;52.478;13.534;2022-07-11T01:13:06;15.80;99.90
30053;DHT22;17074;52.478;13.534;2022-07-11T01:15:35;15.80;99.90
30053;DHT22;17074;52.478;13.534;2022-07-11T01:18:02;15.70;99.90
30053;DHT22;17074;52.478;13.534;2022-07-11T01:20:28;15.70;99.90
30053;DHT22;17074;52.478;13.534;2022-07-11T01:23:05;15.70;99.90
30053;DHT22;17074;52.478;13.534;2022-07-11T01:25:32;15.60;99.90
30053;DHT22;17074;52.478;13.534;2022-07-11T01:27:59;15.60;99.90
30053;DHT22;17074;52.478;13.534;2022-07-11T01:30:26;15.60;99.90
30053;DHT22;17074;52.478;13.534;2022-07-11T01:32:52;15.60;99.90
30053;DHT22;17074;52.478;13.534;2022-07-11T01:35:19;15.60;99.90
30053;DHT22;17074;52.478;13.534;2022-07-11T01:37:44;15.50;99.90
30053;DHT22;17074;52.478;13.534;2022-07-11T01:40:10;15.50;99.90
30053;DHT22;17074;52.478;13.534;2022-07-11T01:42:36;15.50;99.90
30053;DHT22;17074;52.478;13.534;2022-07-11T01:45:11;15.50;99.90
30053;DHT22;17074;52.478;13.534;2022-07-11T01:47:38;15.50;99.90
30053;DHT22;17074;52.478;13.534;2022-07-11T01:50:04;15.40;99.90
30053;DHT22;17074;52.478;13.534;2022-07-11T01:52:30;15.40;99.90
30053;DHT22;17074;52.478;13.534;2022-07-11T01:54:56;15.40;99.90
30053;DHT22;17074;52.478;13.534;2022-07-11T01:57:21;15.40;99.90
30053;DHT22;17074;52.478;13.534;2022-07-11T01:59:47;15.40;99.90
30053;DHT22;17074;52.478;13.534;2022-07-11T02:02:14;15.30;99.90
30053;DHT22;17074;52.478;13.534;2022-07-11T02:04:40;15.30;99.90
30053;DHT22;17074;52.478;13.534;2022-07-11T02:07:06;15.30;99.90
30053;DHT22;17074;52.478;13.534;2022-07-11T02:09:32;15.20;99.90
30053;DHT22;17074;52.478;13.534;2022-07-11T02:11:58;15.20;99.90
30053;DHT22;17074;52.478;13.534;2022-07-11T02:14:23;15.20;99.90
30053;DHT22;17074;52.478;13.534;2022-07-11T02:16:49;15.10;99.90
30053;DHT22;17074;52.478;13.534;2022-07-11T02:19:15;15.10;99.90
30053;DHT22;17074;52.478;13.534;2022-07-11T02:21:41;15.10;99.90
30053;DHT22;17074;52.478;13.534;2022-07-11T02:24:07;15.00;99.90
30053;DHT22;17074;52.478;13.534;2022-07-11T02:26:34;15.00;99.90
30053;DHT22;17074;52.478;13.534;2022-07-11T02:29:00;15.00;99.90
30053;DHT22;17074;52.478;13.534;2022-07-11T02:31:25;14.90;99.90
30053;DHT22;17074;52.478;13.534;2022-07-11T02:33:51;14.90;99.90
30053;DHT22;17074;52.478;13.534;2022-07-11T02:36:17;14.90;99.90
30053;DHT22;17074;52.478;13.534;2022-07-11T02:38:42;14.90;99.90
30053;DHT22;17074;52.478;13.534;2022-07-11T02:41:08;14.90;99.90
30053;DHT22;17074;52.478;13.534;2022-07-11T02:43:34;14.90;99.90
30053;DHT22;17074;52.478;13.534;2022-07-11T02:46:00;14.90;99.90
30053;DHT22;17074;52.478;13.534;2022-07-11T02:48:27;14.90;99.90
30053;DHT22;17074;52.478;13.534;2022-07-11T02:50:53;14.90;99.90
30053;DHT22;17074;52.478;13.534;2022-07-11T02:53:18;14.90;99.90
30053;DHT22;17074;52.478;13.534;2022-07-11T02:55:44;14.90;99.90
30053;DHT22;17074;52.478;13.534;2022-07-11T02:58:09;14.90;99.90
30053;DHT22;17074;52.478;13.534;2022-07-11T03:00:35;14.90;99.90
30053;DHT22;17074;52.478;13.534;2022-07-11T03:03:01;14.90;99.90
30053;DHT22;17074;52.478;13.534;2022-07-11T03:05:27;14.90;99.90
30053;DHT22;17074;52.478;13.534;2022-07-11T03:07:53;14.90;99.90
30053;DHT22;17074;52.478;13.534;2022-07-11T03:10:19;14.90;99.90
30053;DHT22;17074;52.478;13.534;2022-07-11T03:12:44;15.00;99.90
30053;DHT22;17074;52.478;13.534;2022-07-11T03:15:10;14.90;99.90
30053;DHT22;17074;52.478;13.534;2022-07-11T03:17:36;15.00;99.90
30053;DHT22;17074;52.478;13.534;2022-07-11T03:20:03;15.10;99.90
30053;DHT22;17074;52.478;13.534;2022-07-11T03:22:29;15.10;99.90
30053;DHT22;17074;52.478;13.534;2022-07-11T03:24:54;15.10;99.90
30053;DHT22;17074;52.478;13.534;2022-07-11T03:27:20;15.00;99.90
30053;DHT22;17074;52.478;13.534;2022-07-11T03:29:46;15.00;99.90
30053;DHT22;17074;52.478;13.534;2022-07-11T03:32:12;14.90;99.90
30053;DHT22;17074;52.478;13.534;2022-07-11T03:34:38;14.90;99.90
30053;DHT22;17074;52.478;13.534;2022-07-11T03:37:04;14.90;99.90
30053;DHT22;17074;52.478;13.534;2022-07-11T03:39:30;14.90;99.90
30053;DHT22;17074;52.478;13.534;2022-07-11T03:41:56;14.90;99.90
30053;DHT22;17074;52.478;13.534;2022-07-11T03:44:21;14.90;99.90
30053;DHT22;17074;52.478;13.534;2022-07-11T03:46:47;15.00;99.90
30053;DHT22;17074;52.478;13.534;2022-07-11T03:49:13;15.20;99.90
30053;DHT22;17074;52.478;13.534;2022-07-11T03:51:39;15.30;99.90
30053;DHT22;17074;52.478;13.534;2022-07-11T03:54:05;15.60;99.90
30053;DHT22;17074;52.478;13.534;2022-07-11T03:56:30;15.80;99.90
30053;DHT22;17074;52.478;13.534;2022-07-11T03:58:56;16.00;99.90
30053;DHT22;17074;52.478;13.534;2022-07-11T04:01:22;16.20;99.90
30053;DHT22;17074;52.478;13.534;2022-07-11T04:03:48;16.30;99.90
30053;DHT22;17074;52.478;13.534;2022-07-11T04:06:15;16.40;99.90
30053;DHT22;17074;52.478;13.534;2022-07-11T04:08:41;16.60;99.90
30053;DHT22;17074;52.478;13.534;2022-07-11T04:11:06;16.80;99.90
30053;DHT22;17074;52.478;13.534;2022-07-11T04:13:32;17.20;99.90
30053;DHT22;17074;52.478;13.534;2022-07-11T04:15:58;17.60;99.90
30053;DHT22;17074;52.478;13.534;2022-07-11T04:18:24;18.00;99.90
30053;DHT22;17074;52.478;13.534;2022-07-11T04:20:49;18.20;99.90
30053;DHT22;17074;52.478;13.534;2022-07-11T04:23:16;18.60;99.90
30053;DHT22;17074;52.478;13.534;2022-07-11T04:25:42;18.80;99.90
30053;DHT22;17074;52.478;13.534;2022-07-11T04:28:08;19.20;99.90
30053;DHT22;17074;52.478;13.534;2022-07-11T04:30:33;19.20;99.90
30053;DHT22;17074;52.478;13.534;2022-07-11T04:33:00;19.20;99.90
30053;DHT22;17074;52.478;13.534;2022-07-11T04:35:25;19.00;99.90
30053;DHT22;17074;52.478;13.534;2022-07-11T04:37:53;18.80;99.90
30053;DHT22;17074;52.478;13.534;2022-07-11T04:40:19;18.60;99.90
30053;DHT22;17074;52.478;13.534;2022-07-11T04:42:46;18.40;99.90
30053;DHT22;17074;52.478;13.534;2022-07-11T04:45:11;18.30;99.90
30053;DHT22;17074;52.478;13.534;2022-07-11T04:47:37;18.30;99.90
30053;DHT22;17074;52.478;13.534;2022-07-11T04:50:03;18.30;99.90
30053;DHT22;17074;52.478;13.534;2022-07-11T04:52:29;18.20;99.90
30053;DHT22;17074;52.478;13.534;2022-07-11T04:54:54;18.10;99.90
30053;DHT22;17074;52.478;13.534;2022-07-11T04:57:20;18.00;99.90
30053;DHT22;17074;52.478;13.534;2022-07-11T04:59:45;17.90;99.90
30053;DHT22;17074;52.478;13.534;2022-07-11T05:02:11;17.90;99.90
30053;DHT22;17074;52.478;13.534;2022-07-11T05:04:37;17.90;99.90
30053;DHT22;17074;52.478;13.534;2022-07-11T05:07:03;17.90;99.90
30053;DHT22;17074;52.478;13.534;2022-07-11T05:09:28;17.90;99.90
30053;DHT22;17074;52.478;13.534;2022-07-11T05:11:54;17.90;99.90
30053;DHT22;17074;52.478;13.534;2022-07-11T05:14:20;17.90;99.90
30053;DHT22;17074;52.478;13.534;2022-07-11T05:16:45;17.90;99.90
30053;DHT22;17074;52.478;13.534;2022-07-11T05:19:11;17.90;99.90
30053;DHT22;17074;52.478;13.534;2022-07-11T05:21:36;17.90;99.90
30053;DHT22;17074;52.478;13.534;2022-07-11T05:24:03;17.90;99.90
30053;DHT22;17074;52.478;13.534;2022-07-11T05:26:28;18.00;99.90
30053;DHT22;17074;52.478;13.534;2022-07-11T05:28:54;18.00;99.90
30053;DHT22;17074;52.478;13.534;2022-07-11T05:31:20;17.90;99.90
30053;DHT22;17074;52.478;13.534;2022-07-11T05:33:45;18.00;99.90
30053;DHT22;17074;52.478;13.534;2022-07-11T05:36:11;18.00;99.90
30053;DHT22;17074;52.478;13.534;2022-07-11T05:38:36;18.00;99.90
30053;DHT22;17074;52.478;13.534;2022-07-11T05:41:02;18.00;99.90
30053;DHT22;17074;52.478;13.534;2022-07-11T05:43:28;18.10;99.90
30053;DHT22;17074;52.478;13.534;2022-07-11T05:45:54;18.10;99.90
30053;DHT22;17074;52.478;13.534;2022-07-11T05:48:20;18.10;99.90
30053;DHT22;17074;52.478;13.534;2022-07-11T05:50:45;18.10;99.90
30053;DHT22;17074;52.478;13.534;2022-07-11T05:53:11;18.20;99.90
30053;DHT22;17074;52.478;13.534;2022-07-11T05:55:38;18.30;99.90
30053;DHT22;17074;52.478;13.534;2022-07-11T05:58:04;18.30;99.90
30053;DHT22;17074;52.478;13.534;2022-07-11T06:00:29;18.40;99.90
30053;DHT22;17074;52.478;13.534;2022-07-11T06:02:55;18.50;99.90
30053;DHT22;17074;52.478;13.534;2022-07-11T06:05:21;18.40;99.90
30053;DHT22;17074;52.478;13.534;2022-07-11T06:07:47;18.40;99.90
30053;DHT22;17074;52.478;13.534;2022-07-11T06:10:31;18.40;99.90
30053;DHT22;17074;52.478;13.534;2022-07-11T06:12:59;18.40;99.90
30053;DHT22;17074;52.478;13.534;2022-07-11T06:15:25;18.40;99.90
30053;DHT22;17074;52.478;13.534;2022-07-11T06:17:51;18.40;99.90
30053;DHT22;17074;52.478;13.534;2022-07-11T06:20:17;18.40;99.90
30053;DHT22;17074;52.478;13.534;2022-07-11T06:22:42;18.50;99.90
30053;DHT22;17074;52.478;13.534;2022-07-11T06:25:08;18.70;99.90
30053;DHT22;17074;52.478;13.534;2022-07-11T06:27:35;18.80;99.90
30053;DHT22;17074;52.478;13.534;2022-07-11T06:30:02;18.90;99.90
30053;DHT22;17074;52.478;13.534;2022-07-11T06:32:27;18.90;99.90
30053;DHT22;17074;52.478;13.534;2022-07-11T06:34:53;19.20;99.90
30053;DHT22;17074;52.478;13.534;2022-07-11T06:37:19;19.00;99.90
30053;DHT22;17074;52.478;13.534;2022-07-11T06:39:44;19.10;99.90
30053;DHT22;17074;52.478;13.534;2022-07-11T06:42:10;19.20;99.90
30053;DHT22;17074;52.478;13.534;2022-07-11T06:44:36;19.40;99.90
30053;DHT22;17074;52.478;13.534;2022-07-11T06:47:02;19.50;99.90
30053;DHT22;17074;52.478;13.534;2022-07-11T06:49:27;19.60;99.90
30053;DHT22;17074;52.478;13.534;2022-07-11T06:51:53;19.80;99.90
30053;DHT22;17074;52.478;13.534;2022-07-11T06:54:18;20.00;99.90
30053;DHT22;17074;52.478;13.534;2022-07-11T06:56:44;20.30;99.90
30053;DHT22;17074;52.478;13.534;2022-07-11T06:59:10;20.70;99.90
30053;DHT22;17074;52.478;13.534;2022-07-11T07:01:35;20.90;99.90
30053;DHT22;17074;52.478;13.534;2022-07-11T07:04:01;21.00;99.90
30053;DHT22;17074;52.478;13.534;2022-07-11T07:06:26;21.10;99.90
30053;DHT22;17074;52.478;13.534;2022-07-11T07:08:52;21.20;99.90
30053;DHT22;17074;52.478;13.534;2022-07-11T07:11:18;21.10;99.90
30053;DHT22;17074;52.478;13.534;2022-07-11T07:13:44;21.00;99.90
30053;DHT22;17074;52.478;13.534;2022-07-11T07:16:11;20.90;99.90
30053;DHT22;17074;52.478;13.534;2022-07-11T07:18:37;21.10;99.90
30053;DHT22;17074;52.478;13.534;2022-07-11T07:21:08;21.60;99.90
30053;DHT22;17074;52.478;13.534;2022-07-11T07:23:33;22.20;99.90
30053;DHT22;17074;52.478;13.534;2022-07-11T07:25:59;23.10;99.90
30053;DHT22;17074;52.478;13.534;2022-07-11T07:28:25;23.80;99.90
30053;DHT22;17074;52.478;13.534;2022-07-11T07:30:53;24.40;99.90
30053;DHT22;17074;52.478;13.534;2022-07-11T07:33:19;24.60;99.90
30053;DHT22;17074;52.478;13.534;2022-07-11T07:35:45;24.60;99.90
30053;DHT22;17074;52.478;13.534;2022-07-11T07:38:10;24.70;99.90
30053;DHT22;17074;52.478;13.534;2022-07-11T07:40:36;24.60;99.90
30053;DHT22;17074;52.478;13.534;2022-07-11T07:43:02;24.40;99.90
30053;DHT22;17074;52.478;13.534;2022-07-11T07:45:27;24.00;99.90
30053;DHT22;17074;52.478;13.534;2022-07-11T07:47:53;23.30;99.90
30053;DHT22;17074;52.478;13.534;2022-07-11T07:50:19;23.10;99.90
30053;DHT22;17074;52.478;13.534;2022-07-11T07:52:44;23.10;99.90
30053;DHT22;17074;52.478;13.534;2022-07-11T07:55:10;23.40;99.90
30053;DHT22;17074;52.478;13.534;2022-07-11T07:57:36;23.70;99.90
30053;DHT22;17074;52.478;13.534;2022-07-11T08:00:03;24.10;99.90
30053;DHT22;17074;52.478;13.534;2022-07-11T08:02:47;24.50;99.90
30053;DHT22;17074;52.478;13.534;2022-07-11T08:05:16;25.00;99.90
30053;DHT22;17074;52.478;13.534;2022-07-11T08:07:42;25.00;99.90
30053;DHT22;17074;52.478;13.534;2022-07-11T08:10:08;24.70;99.90
30053;DHT22;17074;52.478;13.534;2022-07-11T08:12:33;25.00;99.90
30053;DHT22;17074;52.478;13.534;2022-07-11T08:14:59;25.10;99.90
30053;DHT22;17074;52.478;13.534;2022-07-11T08:17:25;25.00;99.90
30053;DHT22;17074;52.478;13.534;2022-07-11T08:19:51;25.30;99.90
30053;DHT22;17074;52.478;13.534;2022-07-11T08:22:16;25.50;99.90
30053;DHT22;17074;52.478;13.534;2022-07-11T08:24:42;25.70;99.90
30053;DHT22;17074;52.478;13.534;2022-07-11T08:27:07;25.90;99.90
30053;DHT22;17074;52.478;13.534;2022-07-11T08:29:33;25.90;99.90
30053;DHT22;17074;52.478;13.534;2022-07-11T08:31:59;25.70;99.90
30053;DHT22;17074;52.478;13.534;2022-07-11T08:34:24;25.70;99.90
30053;DHT22;17074;52.478;13.534;2022-07-11T08:36:50;25.90;99.50
30053;DHT22;17074;52.478;13.534;2022-07-11T08:39:17;25.80;99.30
30053;DHT22;17074;52.478;13.534;2022-07-11T08:41:43;25.70;99.20
30053;DHT22;17074;52.478;13.534;2022-07-11T08:44:11;25.90;99.50
30053;DHT22;17074;52.478;13.534;2022-07-11T08:46:39;26.00;99.50
30053;DHT22;17074;52.478;13.534;2022-07-11T08:49:06;26.10;98.80
30053;DHT22;17074;52.478;13.534;2022-07-11T08:51:32;26.00;99.40
30053;DHT22;17074;52.478;13.534;2022-07-11T08:53:57;25.70;98.90
30053;DHT22;17074;52.478;13.534;2022-07-11T08:56:24;25.20;99.50
30053;DHT22;17074;52.478;13.534;2022-07-11T08:58:53;24.90;99.60
30053;DHT22;17074;52.478;13.534;2022-07-11T09:01:24;24.60;98.60
30053;DHT22;17074;52.478;13.534;2022-07-11T09:03:51;24.20;99.50
30053;DHT22;17074;52.478;13.534;2022-07-11T09:06:18;23.80;99.80
30053;DHT22;17074;52.478;13.534;2022-07-11T09:08:44;23.30;99.90
30053;DHT22;17074;52.478;13.534;2022-07-11T09:11:09;23.30;99.90
30053;DHT22;17074;52.478;13.534;2022-07-11T09:13:35;23.40;99.90
30053;DHT22;17074;52.478;13.534;2022-07-11T09:16:04;23.10;99.90
30053;DHT22;17074;52.478;13.534;2022-07-11T09:18:32;22.90;99.90
30053;DHT22;17074;52.478;13.534;2022-07-11T09:21:04;23.00;99.90
30053;DHT22;17074;52.478;13.534;2022-07-11T09:23:49;23.10;99.90
30053;DHT22;17074;52.478;13.534;2022-07-11T09:26:37;23.50;99.90
30053;DHT22;17074;52.478;13.534;2022-07-11T09:29:12;23.80;99.90
30053;DHT22;17074;52.478;13.534;2022-07-11T09:31:40;24.10;99.70
30053;DHT22;17074;52.478;13.534;2022-07-11T09:34:09;23.50;99.90
30053;DHT22;17074;52.478;13.534;2022-07-11T09:36:37;23.50;99.90
30053;DHT22;17074;52.478;13.534;2022-07-11T09:39:04;23.70;99.90
30053;DHT22;17074;52.478;13.534;2022-07-11T09:41:32;24.20;99.90
30053;DHT22;17074;52.478;13.534;2022-07-11T09:44:06;24.40;99.90
30053;DHT22;17074;52.478;13.534;2022-07-11T09:46:32;24.30;98.50
30053;DHT22;17074;52.478;13.534;2022-07-11T09:48:59;23.80;99.10
30053;DHT22;17074;52.478;13.534;2022-07-11T09:51:26;23.70;99.90
30053;DHT22;17074;52.478;13.534;2022-07-11T09:53:55;23.70;99.30
30053;DHT22;17074;52.478;13.534;2022-07-11T09:56:25;23.80;99.60
30053;DHT22;17074;52.478;13.534;2022-07-11T09:59:02;24.10;99.90
30053;DHT22;17074;52.478;13.534;2022-07-11T10:01:28;24.50;99.40
30053;DHT22;17074;52.478;13.534;2022-07-11T10:03:55;24.60;98.30
30053;DHT22;17074;52.478;13.534;2022-07-11T10:06:21;24.20;98.80
30053;DHT22;17074;52.478;13.534;2022-07-11T10:08:48;24.00;99.10
30053;DHT22;17074;52.478;13.534;2022-07-11T10:11:14;23.80;97.90
30053;DHT22;17074;52.478;13.534;2022-07-11T10:13:41;23.80;97.60
30053;DHT22;17074;52.478;13.534;2022-07-11T10:19:11;23.70;98.00
30053;DHT22;17074;52.478;13.534;2022-07-11T10:21:53;23.50;97.00
30053;DHT22;17074;52.478;13.534;2022-07-11T10:27:21;24.10;98.70
30053;DHT22;17074;52.478;13.534;2022-07-11T10:29:51;24.00;98.30
30053;DHT22;17074;52.478;13.534;2022-07-11T10:32:17;23.60;97.90
30053;DHT22;17074;52.478;13.534;2022-07-11T10:34:43;23.50;98.30
30053;DHT22;17074;52.478;13.534;2022-07-11T10:37:09;23.60;98.40
30053;DHT22;17074;52.478;13.534;2022-07-11T10:39:36;23.70;98.20
30053;DHT22;17074;52.478;13.534;2022-07-11T10:42:04;23.70;97.60
30053;DHT22;17074;52.478;13.534;2022-07-11T10:44:50;23.90;97.70
30053;DHT22;17074;52.478;13.534;2022-07-11T10:47:42;23.90;96.30
30053;DHT22;17074;52.478;13.534;2022-07-11T10:50:34;23.90;96.50
30053;DHT22;17074;52.478;13.534;2022-07-11T10:53:08;24.20;96.60
30053;DHT22;17074;52.478;13.534;2022-07-11T10:58:30;24.80;96.40
30053;DHT22;17074;52.478;13.534;2022-07-11T11:01:13;25.10;95.90
30053;DHT22;17074;52.478;13.534;2022-07-11T11:03:41;25.50;94.50
30053;DHT22;17074;52.478;13.534;2022-07-11T11:06:07;25.40;93.60
30053;DHT22;17074;52.478;13.534;2022-07-11T11:10:59;25.60;94.30
30053;DHT22;17074;52.478;13.534;2022-07-11T11:13:26;25.50;94.80
30053;DHT22;17074;52.478;13.534;2022-07-11T11:29:10;25.40;94.10
30053;DHT22;17074;52.478;13.534;2022-07-11T11:31:36;25.40;94.10
30053;DHT22;17074;52.478;13.534;2022-07-11T11:34:03;25.50;94.20
30053;DHT22;17074;52.478;13.534;2022-07-11T11:36:29;25.70;94.00
30053;DHT22;17074;52.478;13.534;2022-07-11T11:38:55;25.90;94.10
30053;DHT22;17074;52.478;13.534;2022-07-11T11:41:29;26.10;93.70
30053;DHT22;17074;52.478;13.534;2022-07-11T11:43:57;26.50;93.00
30053;DHT22;17074;52.478;13.534;2022-07-11T11:46:28;26.70;92.90
30053;DHT22;17074;52.478;13.534;2022-07-11T11:48:58;26.80;91.80
30053;DHT22;17074;52.478;13.534;2022-07-11T11:51:26;26.60;92.70
30053;DHT22;17074;52.478;13.534;2022-07-11T11:53:54;26.30;93.10
30053;DHT22;17074;52.478;13.534;2022-07-11T11:56:28;26.00;92.90
30053;DHT22;17074;52.478;13.534;2022-07-11T11:59:07;25.80;92.90
30053;DHT22;17074;52.478;13.534;2022-07-11T12:01:34;25.90;92.90
30053;DHT22;17074;52.478;13.534;2022-07-11T12:04:05;26.00;91.80
30053;DHT22;17074;52.478;13.534;2022-07-11T12:06:41;25.70;92.20
30053;DHT22;17074;52.478;13.534;2022-07-11T12:09:12;25.80;92.40
30053;DHT22;17074;52.478;13.534;2022-07-11T12:11:40;25.80;92.00
30053;DHT22;17074;52.478;13.534;2022-07-11T12:14:11;25.80;92.70
30053;DHT22;17074;52.478;13.534;2022-07-11T12:16:42;25.70;92.30
30053;DHT22;17074;52.478;13.534;2022-07-11T12:21:43;25.40;91.90
30053;DHT22;17074;52.478;13.534;2022-07-11T12:24:12;25.40;92.00
30053;DHT22;17074;52.478;13.534;2022-07-11T12:26:39;25.70;91.90
30053;DHT22;17074;52.478;13.534;2022-07-11T12:29:19;26.10;91.40
30053;DHT22;17074;52.478;13.534;2022-07-11T12:31:53;26.20;91.30
30053;DHT22;17074;52.478;13.534;2022-07-11T12:34:20;26.10;90.90
30053;DHT22;17074;52.478;13.534;2022-07-11T12:36:46;25.90;90.60
30053;DHT22;17074;52.478;13.534;2022-07-11T12:41:50;25.50;91.50
30053;DHT22;17074;52.478;13.534;2022-07-11T12:44:28;25.50;92.10
30053;DHT22;17074;52.478;13.534;2022-07-11T12:47:13;25.60;91.20
30053;DHT22;17074;52.478;13.534;2022-07-11T12:49:40;25.30;91.60
30053;DHT22;17074;52.478;13.534;2022-07-11T12:52:13;25.50;91.60
30053;DHT22;17074;52.478;13.534;2022-07-11T12:54:39;25.90;90.90
30053;DHT22;17074;52.478;13.534;2022-07-11T12:57:06;26.10;90.90
30053;DHT22;17074;52.478;13.534;2022-07-11T12:59:32;26.20;90.70
30053;DHT22;17074;52.478;13.534;2022-07-11T13:02:03;26.10;90.30
30053;DHT22;17074;52.478;13.534;2022-07-11T13:04:31;25.90;90.60
30053;DHT22;17074;52.478;13.534;2022-07-11T13:06:56;25.90;90.90
30053;DHT22;17074;52.478;13.534;2022-07-11T13:09:41;25.90;91.40
30053;DHT22;17074;52.478;13.534;2022-07-11T13:12:06;25.70;90.80
30053;DHT22;17074;52.478;13.534;2022-07-11T13:14:32;25.60;90.90
30053;DHT22;17074;52.478;13.534;2022-07-11T13:17:16;25.70;91.10
30053;DHT22;17074;52.478;13.534;2022-07-11T13:19:42;25.60;90.40
30053;DHT22;17074;52.478;13.534;2022-07-11T13:22:08;25.20;90.40
30053;DHT22;17074;52.478;13.534;2022-07-11T13:24:33;25.00;90.50
30053;DHT22;17074;52.478;13.534;2022-07-11T13:26:59;25.20;91.00
30053;DHT22;17074;52.478;13.534;2022-07-11T13:29:25;25.30;89.00
30053;DHT22;17074;52.478;13.534;2022-07-11T13:31:51;25.40;89.40
30053;DHT22;17074;52.478;13.534;2022-07-11T13:34:17;25.40;89.80
30053;DHT22;17074;52.478;13.534;2022-07-11T13:36:42;25.50;90.50
30053;DHT22;17074;52.478;13.534;2022-07-11T13:39:08;25.60;90.50
30053;DHT22;17074;52.478;13.534;2022-07-11T13:41:34;25.50;91.10
30053;DHT22;17074;52.478;13.534;2022-07-11T13:44:00;25.50;90.50
30053;DHT22;17074;52.478;13.534;2022-07-11T13:46:26;25.50;89.80
30053;DHT22;17074;52.478;13.534;2022-07-11T13:48:52;25.30;89.40
30053;DHT22;17074;52.478;13.534;2022-07-11T13:51:17;25.20;90.00
30053;DHT22;17074;52.478;13.534;2022-07-11T13:53:43;25.30;90.20
30053;DHT22;17074;52.478;13.534;2022-07-11T13:56:09;25.30;90.70
30053;DHT22;17074;52.478;13.534;2022-07-11T13:58:34;25.40;90.10
30053;DHT22;17074;52.478;13.534;2022-07-11T14:01:00;25.40;90.10
30053;DHT22;17074;52.478;13.534;2022-07-11T14:03:26;25.20;90.40
30053;DHT22;17074;52.478;13.534;2022-07-11T14:05:52;25.20;91.00
30053;DHT22;17074;52.478;13.534;2022-07-11T14:08:18;25.20;90.90
30053;DHT22;17074;52.478;13.534;2022-07-11T14:10:44;25.40;91.40
30053;DHT22;17074;52.478;13.534;2022-07-11T14:13:10;25.60;90.90
30053;DHT22;17074;52.478;13.534;2022-07-11T14:15:38;25.70;90.40
30053;DHT22;17074;52.478;13.534;2022-07-11T14:18:03;25.60;90.30
30053;DHT22;17074;52.478;13.534;2022-07-11T14:20:29;25.50;90.60
30053;DHT22;17074;52.478;13.534;2022-07-11T14:22:55;25.50;90.60
30053;DHT22;17074;52.478;13.534;2022-07-11T14:25:20;25.50;90.40
30053;DHT22;17074;52.478;13.534;2022-07-11T14:27:46;25.40;90.90
30053;DHT22;17074;52.478;13.534;2022-07-11T14:30:12;25.10;91.30
30053;DHT22;17074;52.478;13.534;2022-07-11T14:32:38;24.80;91.80
30053;DHT22;17074;52.478;13.534;2022-07-11T14:35:04;24.60;91.40
30053;DHT22;17074;52.478;13.534;2022-07-11T14:37:29;24.50;92.20
30053;DHT22;17074;52.478;13.534;2022-07-11T14:39:55;24.50;91.90
30053;DHT22;17074;52.478;13.534;2022-07-11T14:42:20;24.50;91.60
30053;DHT22;17074;52.478;13.534;2022-07-11T14:44:46;24.40;92.10
30053;DHT22;17074;52.478;13.534;2022-07-11T14:47:14;24.40;91.50
30053;DHT22;17074;52.478;13.534;2022-07-11T14:49:40;24.50;92.30
30053;DHT22;17074;52.478;13.534;2022-07-11T14:52:06;24.50;91.40
30053;DHT22;17074;52.478;13.534;2022-07-11T14:54:31;24.50;91.80
30053;DHT22;17074;52.478;13.534;2022-07-11T14:56:57;24.30;91.60
30053;DHT22;17074;52.478;13.534;2022-07-11T14:59:22;24.50;91.70
30053;DHT22;17074;52.478;13.534;2022-07-11T15:01:48;24.80;91.00
30053;DHT22;17074;52.478;13.534;2022-07-11T15:04:14;25.10;91.00
30053;DHT22;17074;52.478;13.534;2022-07-11T15:06:42;25.20;90.80
30053;DHT22;17074;52.478;13.534;2022-07-11T15:09:26;25.10;90.60
30053;DHT22;17074;52.478;13.534;2022-07-11T15:12:10;24.70;91.50
30053;DHT22;17074;52.478;13.534;2022-07-11T15:14:53;24.50;91.30
30053;DHT22;17074;52.478;13.534;2022-07-11T15:17:20;24.80;91.30
30053;DHT22;17074;52.478;13.534;2022-07-11T15:19:45;25.00;90.40
30053;DHT22;17074;52.478;13.534;2022-07-11T15:22:11;25.10;90.40
30053;DHT22;17074;52.478;13.534;2022-07-11T15:24:37;25.10;90.50
30053;DHT22;17074;52.478;13.534;2022-07-11T15:27:03;24.90;91.00
30053;DHT22;17074;52.478;13.534;2022-07-11T15:29:29;24.80;91.50
30053;DHT22;17074;52.478;13.534;2022-07-11T15:31:54;24.70;90.80
30053;DHT22;17074;52.478;13.534;2022-07-11T15:34:20;24.60;91.20
30053;DHT22;17074;52.478;13.534;2022-07-11T15:36:46;24.50;91.00
30053;DHT22;17074;52.478;13.534;2022-07-11T15:39:12;24.10;91.00
30053;DHT22;17074;52.478;13.534;2022-07-11T15:41:37;24.00;91.30
30053;DHT22;17074;52.478;13.534;2022-07-11T15:44:03;24.00;91.40